Fort Benning, GA

6:39 PM EDT on September 18, 2014 (GMT -0400)
Weedon | Change Station
CLOSE
Current Station
Airport
Location: Eufaula,
Elevation: 285 ft
Nearby Weather Stations

Elev 285 ft 31.95 °N, 85.13 °W | Updated 41 minutes ago

Clear
Clear
86 °F
Feels Like 86 °F
N
0
Wind Variable Wind from North

Today
High -- | Low -- °F
--% Chance of Precip.
Yesterday
High -- | Low -- °F
Precip. -- in
7:25 AM 7:41 PM
Waning Crescent, 24% visible
Pressure 29.90 in
Visibility 10.0 miles
Clouds Clear
Heat Index 86 °F
Dew Point 61 °F
Humidity 43%
Rainfall 0.01 in
Snow Depth Not available.
UV 2 out of 12
Pollen 8.50 out of 12
Ozone Good
PM2.5 Good
Flu Activity Not available.
METAR KEUF 182158Z AUTO 00000KT 10SM CLR 30/16 A2991 RMK AO2 SLP123 T03000161

More Conditions Fewer Conditions

Pressure 29.90 in
Visibility 10.0 miles
Clouds Clear
Heat Index 86 °F
Dew Point 61 °F
Humidity 43%
Rainfall 0.01 in
Snow Depth Not available.
UV 2 out of 12
Pollen 8.50 out of 12
Ozone Good
PM2.5 Good
Flu Activity Not available.
METAR KEUF 182158Z AUTO 00000KT 10SM CLR 30/16 A2991 RMK AO2 SLP123 T03000161

More Conditions Fewer Conditions

10-Day Weather Forecast

Almanac

Astronomy

Sep. 18, 2014 Rise Set
Actual Time 7:25 AM EDT 7:41 PM EDT
Civil Twilight 7:00 AM EDT 8:06 PM EDT
Nautical Twilight 6:32 AM EDT 8:34 PM EDT
Astronomical Twilight 6:02 AM EDT 9:03 PM EDT
Moon 2:29 AM EDT 4:20 PM EDT
Length of Visible Light 13h 05m
Length of Day
12h 16m
Tomorrow will be 1m 59s shorter.
Waning Crescent, 24% of the Moon is Illuminated
Today
Waning Crescent
Sep 24
New
Oct 1
First Quarter
Oct 8
Full
Oct 15
Last Quarter

Today's Extremes

State Highs State Lows

Community

WunderPhotos

Upload Photos

1,754,457 photos uploaded!

WunderBlogs® & News

Nearby

Air Quality

  Air Quality AQ Index Pollutant
Yesterday Good
PM2.5
Yesterday Good
OZONE
Current Good
OZONE
Current Good
PM2.5
Thursday Good
PM2.5
Friday Good
PM2.5

Snow Depth

Station Depth Elevation
No new snow has been reported.

Earthquake Activity

City Distance Mag. Time & Date
No recent earthquake activity has been reported nearby.
Minimum magnitude displayed is 2.5.

Coastal Water Temperatures

Place Temperature
No Stations Reporting

Nearby Weather Stations